Time;durP1;ratioP1;P1;durP2;ratioP2;P2;SDS_P1;SDS_P2;PMS_P1;PMS_P2;Temp;Humidity;BMP_temperature;BMP_pressure;BME280_temperature;BME280_humidity;BME280_pressure;Samples;Min_cycle;Max_cycle;Signal;HPM_P1;HPM_P2
2023/06/14 00:00:00;;;;;;;;;8.00;7.50;;;;;;;;119419;1194;25445;-68
2023/06/14 00:02:29;;;;;;;;;8.00;8.00;;;;;;;;119425;1194;24940;-68
2023/06/14 00:04:59;;;;;;;;;6.50;6.50;;;;;;;;119407;1194;25531;-68
2023/06/14 00:07:35;;;;;;;;;5.75;5.75;;;;;;;;119423;1185;25746;-68
2023/06/14 00:10:04;;;;;;;;;5.00;5.00;;;;;;;;119432;1186;25068;-69
2023/06/14 00:12:33;;;;;;;;;7.50;7.50;;;;;;;;119398;1192;25395;-68
2023/06/14 00:15:01;;;;;;;;;8.50;8.50;;;;;;;;119382;1194;24920;-68
2023/06/14 00:17:31;;;;;;;;;4.00;4.00;;;;;;;;119396;1194;25084;-68
2023/06/14 00:20:00;;;;;;;;;8.00;8.00;;;;;;;;119412;1194;25547;-69
2023/06/14 00:22:31;;;;;;;;;7.00;7.00;;;;;;;;119394;1194;24835;-68
2023/06/14 00:25:00;;;;;;;;;6.75;6.75;;;;;;;;119395;1194;26485;-68
2023/06/14 00:27:42;;;;;;;;;7.00;6.00;;;;;;;;119412;1194;25669;-68
2023/06/14 00:30:11;;;;;;;;;6.00;6.00;;;;;;;;119418;1194;25526;-68
2023/06/14 00:32:39;;;;;;;;;12.00;6.50;;;;;;;;119416;1193;25362;-68
2023/06/14 00:35:08;;;;;;;;;10.00;6.50;;;;;;;;119444;1186;25741;-69
2023/06/14 00:37:37;;;;;;;;;8.67;7.33;;;;;;;;119411;1194;25459;-69
2023/06/14 00:40:06;;;;;;;;;7.75;7.25;;;;;;;;119409;1193;25199;-68
2023/06/14 00:42:35;;;;;;;;;7.33;7.33;;;;;;;;119395;1185;25443;-68
2023/06/14 00:45:03;;;;;;;;;8.00;6.50;;;;;;;;119407;1194;25429;-68
2023/06/14 00:47:32;;;;;;;;;6.50;6.50;;;;;;;;119388;1194;25456;-68
2023/06/14 00:50:00;;;;;;;;;8.00;6.67;;;;;;;;119405;1193;25130;-68
2023/06/14 00:52:29;;;;;;;;;8.50;8.50;;;;;;;;119417;1193;25659;-68
2023/06/14 00:54:57;;;;;;;;;8.00;7.00;;;;;;;;119401;1194;25147;-68
2023/06/14 00:57:26;;;;;;;;;5.50;5.50;;;;;;;;119404;1186;24768;-68
2023/06/14 00:59:55;;;;;;;;;7.00;7.00;;;;;;;;119438;1186;24798;-68
2023/06/14 01:02:26;;;;;;;;;9.50;6.00;;;;;;;;119406;1193;25395;-68
2023/06/14 01:04:55;;;;;;;;;6.00;6.00;;;;;;;;119402;1194;25671;-68
2023/06/14 01:07:32;;;;;;;;;7.00;5.50;;;;;;;;119429;1194;25598;-68
2023/06/14 01:10:10;;;;;;;;;7.00;5.33;;;;;;;;119419;1194;25167;-68
2023/06/14 01:12:47;;;;;;;;;9.00;6.33;;;;;;;;119408;1194;25697;-68
2023/06/14 01:15:16;;;;;;;;;7.25;7.00;;;;;;;;119408;1194;24723;-68
2023/06/14 01:17:45;;;;;;;;;7.25;6.50;;;;;;;;119397;1194;25031;-69
2023/06/14 01:20:17;;;;;;;;;9.00;8.00;;;;;;;;119413;1186;25609;-68
2023/06/14 01:22:55;;;;;;;;;7.00;7.00;;;;;;;;119406;1192;25571;-68
2023/06/14 01:25:24;;;;;;;;;7.00;7.00;;;;;;;;119409;1190;25425;-68
2023/06/14 01:28:02;;;;;;;;;4.00;4.00;;;;;;;;119406;1194;25565;-68
2023/06/14 01:30:33;;;;;;;;;7.00;7.00;;;;;;;;119417;1194;24979;-68
2023/06/14 01:33:01;;;;;;;;;8.00;6.50;;;;;;;;119397;1194;25625;-68
2023/06/14 01:35:30;;;;;;;;;6.67;6.67;;;;;;;;119403;1185;24811;-68
2023/06/14 01:38:00;;;;;;;;;7.00;7.00;;;;;;;;119410;1194;25151;-68
2023/06/14 01:40:29;;;;;;;;;8.00;8.00;;;;;;;;119424;1194;24825;-68
2023/06/14 01:42:57;;;;;;;;;6.67;6.67;;;;;;;;119420;1194;25667;-68
2023/06/14 01:45:26;;;;;;;;;7.00;7.00;;;;;;;;119406;1194;24806;-68
2023/06/14 01:47:55;;;;;;;;;6.00;6.00;;;;;;;;119416;1185;25315;-67
2023/06/14 01:50:28;;;;;;;;;8.00;8.00;;;;;;;;119422;1194;24918;-68
2023/06/14 01:52:57;;;;;;;;;7.50;6.50;;;;;;;;119404;1194;24906;-68
2023/06/14 01:55:25;;;;;;;;;8.00;7.00;;;;;;;;119420;1192;25697;-69
2023/06/14 01:57:54;;;;;;;;;9.00;9.00;;;;;;;;119415;1194;25171;-68
2023/06/14 02:00:22;;;;;;;;;6.00;5.50;;;;;;;;119417;1194;24836;-68
2023/06/14 02:02:51;;;;;;;;;6.67;4.67;;;;;;;;119407;1185;25346;-68
2023/06/14 02:05:20;;;;;;;;;7.33;6.67;;;;;;;;119429;1194;24932;-68
2023/06/14 02:07:50;;;;;;;;;8.00;7.00;;;;;;;;119410;1187;25315;-68
2023/06/14 02:10:18;;;;;;;;;9.33;8.00;;;;;;;;119447;1193;24745;-68
2023/06/14 02:12:47;;;;;;;;;6.67;6.67;;;;;;;;119390;1185;25678;-68
2023/06/14 02:15:19;;;;;;;;;9.00;7.67;;;;;;;;119426;1194;25113;-68
2023/06/14 02:17:49;;;;;;;;;8.00;7.00;;;;;;;;119403;1194;25285;-69
2023/06/14 02:20:17;;;;;;;;;7.67;7.67;;;;;;;;119404;1194;25199;-68
2023/06/14 02:22:46;;;;;;;;;7.50;7.50;;;;;;;;119416;1185;25642;-68
2023/06/14 02:25:15;;;;;;;;;10.00;7.50;;;;;;;;119402;1194;24856;-68
2023/06/14 02:27:43;;;;;;;;;9.00;8.00;;;;;;;;119401;1194;24747;-68
2023/06/14 02:30:12;;;;;;;;;6.50;5.00;;;;;;;;119376;1192;24797;-68
2023/06/14 02:32:42;;;;;;;;;8.00;8.00;;;;;;;;119376;1194;25485;-68
2023/06/14 02:35:11;;;;;;;;;8.33;8.00;;;;;;;;119408;1186;25348;-67
2023/06/14 02:37:39;;;;;;;;;7.50;7.50;;;;;;;;119440;1194;25633;-68
2023/06/14 02:40:08;;;;;;;;;8.00;8.00;;;;;;;;119393;1194;24760;-68
2023/06/14 02:42:37;;;;;;;;;9.33;8.00;;;;;;;;119411;1194;24800;-68
2023/06/14 02:45:06;;;;;;;;;10.67;7.67;;;;;;;;119412;1194;25014;-68
2023/06/14 02:47:34;;;;;;;;;7.67;7.67;;;;;;;;119390;1193;25294;-68
2023/06/14 02:50:03;;;;;;;;;9.00;8.00;;;;;;;;119406;1194;25374;-68
2023/06/14 02:52:33;;;;;;;;;7.67;7.67;;;;;;;;119447;1185;25697;-67
2023/06/14 02:55:01;;;;;;;;;8.00;7.00;;;;;;;;119380;1194;25245;-68
2023/06/14 02:57:29;;;;;;;;;9.00;6.50;;;;;;;;119422;1194;24935;-68
2023/06/14 02:59:58;;;;;;;;;13.67;8.67;;;;;;;;119411;1194;25077;-68
2023/06/14 03:02:26;;;;;;;;;9.00;8.00;;;;;;;;119389;1185;24832;-68
2023/06/14 03:04:55;;;;;;;;;8.00;7.00;;;;;;;;119436;1194;25328;-67
2023/06/14 03:07:25;;;;;;;;;10.00;7.50;;;;;;;;119388;1194;25262;-68
2023/06/14 03:09:53;;;;;;;;;8.00;8.00;;;;;;;;119388;1194;25156;-68
2023/06/14 03:12:23;;;;;;;;;13.67;9.00;;;;;;;;119407;1194;25179;-68
2023/06/14 03:14:51;;;;;;;;;11.33;10.33;;;;;;;;119398;1194;25773;-68
2023/06/14 03:17:20;;;;;;;;;7.50;7.00;;;;;;;;119382;1187;25545;-69
2023/06/14 03:19:48;;;;;;;;;15.00;10.00;;;;;;;;119355;1194;25491;-69
2023/06/14 03:22:17;;;;;;;;;16.25;11.00;;;;;;;;119407;1193;25507;-67
2023/06/14 03:24:45;;;;;;;;;12.00;10.50;;;;;;;;119425;1194;25342;-68
2023/06/14 03:27:14;;;;;;;;;11.67;9.00;;;;;;;;119430;1194;24772;-68
2023/06/14 03:29:42;;;;;;;;;10.67;8.33;;;;;;;;119416;1186;25320;-68
2023/06/14 03:32:10;;;;;;;;;14.50;11.00;;;;;;;;119441;1194;25084;-67
2023/06/14 03:34:39;;;;;;;;;7.50;7.50;;;;;;;;119424;1186;25552;-67
2023/06/14 03:37:07;;;;;;;;;9.33;9.33;;;;;;;;119410;1186;25340;-67
2023/06/14 03:39:36;;;;;;;;;12.50;11.00;;;;;;;;119423;1194;25601;-67
2023/06/14 03:42:05;;;;;;;;;7.75;7.00;;;;;;;;119412;1194;25006;-67
2023/06/14 03:44:33;;;;;;;;;8.00;7.33;;;;;;;;119405;1194;25715;-67
2023/06/14 03:47:01;;;;;;;;;10.00;10.00;;;;;;;;119399;1194;25058;-67
2023/06/14 03:49:30;;;;;;;;;10.67;8.00;;;;;;;;119405;1194;25402;-67
2023/06/14 03:51:59;;;;;;;;;12.50;11.25;;;;;;;;119396;1194;25386;-68
2023/06/14 03:54:28;;;;;;;;;8.75;7.50;;;;;;;;119394;1186;25741;-66
2023/06/14 03:57:16;;;;;;;;;8.67;7.00;;;;;;;;119426;1194;25331;-67
2023/06/14 03:59:45;;;;;;;;;10.50;10.00;;;;;;;;119346;1194;25247;-67
2023/06/14 04:02:17;;;;;;;;;10.00;8.00;;;;;;;;119430;1193;25596;-67
2023/06/14 04:04:46;;;;;;;;;10.50;10.50;;;;;;;;119405;1184;24906;-67
2023/06/14 04:07:18;;;;;;;;;12.00;8.00;;;;;;;;119409;1194;25398;-67
2023/06/14 04:09:47;;;;;;;;;14.00;9.00;;;;;;;;119403;1194;25075;-68
2023/06/14 04:12:15;;;;;;;;;8.00;8.00;;;;;;;;119434;1194;25332;-68
2023/06/14 04:14:44;;;;;;;;;9.33;4.33;;;;;;;;119403;1194;25567;-68
2023/06/14 04:17:12;;;;;;;;;8.00;7.00;;;;;;;;119438;1185;25784;-68
2023/06/14 04:19:40;;;;;;;;;11.00;8.00;;;;;;;;119438;1194;25432;-68
2023/06/14 04:22:10;;;;;;;;;13.00;10.00;;;;;;;;119434;1194;25615;-68
2023/06/14 04:24:38;;;;;;;;;8.00;7.00;;;;;;;;119443;1185;25444;-68
2023/06/14 04:27:07;;;;;;;;;11.00;10.00;;;;;;;;119409;1193;25007;-68
2023/06/14 04:29:35;;;;;;;;;9.50;8.50;;;;;;;;119431;1186;25427;-68
2023/06/14 04:32:05;;;;;;;;;9.50;9.25;;;;;;;;119419;1194;25249;-68
2023/06/14 04:34:34;;;;;;;;;9.00;8.50;;;;;;;;119411;1180;25472;-68
2023/06/14 04:37:02;;;;;;;;;8.00;7.50;;;;;;;;119415;1194;25576;-68
2023/06/14 04:39:31;;;;;;;;;9.33;9.00;;;;;;;;119411;1194;25189;-68
2023/06/14 04:42:00;;;;;;;;;12.25;10.00;;;;;;;;119438;1194;25433;-68
2023/06/14 04:44:31;;;;;;;;;9.00;8.00;;;;;;;;119379;1194;25377;-68
2023/06/14 04:47:00;;;;;;;;;11.67;9.67;;;;;;;;119387;1194;24807;-68
2023/06/14 04:49:32;;;;;;;;;7.00;7.00;;;;;;;;119396;1194;25061;-68
2023/06/14 04:52:04;;;;;;;;;11.67;9.67;;;;;;;;119406;1194;25087;-67
2023/06/14 04:54:33;;;;;;;;;12.00;10.25;;;;;;;;119367;1194;25516;-68
2023/06/14 04:57:02;;;;;;;;;10.50;8.00;;;;;;;;119341;1194;25050;-68
2023/06/14 04:59:33;;;;;;;;;8.33;7.33;;;;;;;;119386;1193;25405;-67
2023/06/14 05:02:01;;;;;;;;;8.00;7.25;;;;;;;;119419;1186;25080;-67
2023/06/14 05:04:30;;;;;;;;;11.00;9.67;;;;;;;;119384;1194;24739;-67
2023/06/14 05:06:58;;;;;;;;;9.00;9.00;;;;;;;;119428;1194;25668;-67
2023/06/14 05:09:27;;;;;;;;;11.00;11.00;;;;;;;;119428;1194;25314;-68
2023/06/14 05:11:55;;;;;;;;;13.33;10.67;;;;;;;;119438;1194;25356;-68
2023/06/14 05:14:25;;;;;;;;;13.50;9.50;;;;;;;;119419;1194;24771;-68
2023/06/14 05:16:53;;;;;;;;;13.00;9.50;;;;;;;;119421;1190;25467;-68
2023/06/14 05:19:21;;;;;;;;;9.67;8.33;;;;;;;;119414;1186;25512;-68
2023/06/14 05:21:50;;;;;;;;;9.67;7.33;;;;;;;;119423;1194;25327;-68
2023/06/14 05:24:18;;;;;;;;;6.25;6.25;;;;;;;;119387;1194;24955;-68
2023/06/14 05:26:47;;;;;;;;;6.33;6.33;;;;;;;;119402;1194;24937;-67
2023/06/14 05:29:15;;;;;;;;;14.00;8.67;;;;;;;;119413;1194;25073;-67
2023/06/14 05:31:44;;;;;;;;;9.00;9.00;;;;;;;;119410;1186;25215;-68
2023/06/14 05:34:13;;;;;;;;;8.00;8.00;;;;;;;;119407;1194;25128;-67
2023/06/14 05:36:41;;;;;;;;;11.67;8.67;;;;;;;;119421;1194;25322;-68
2023/06/14 05:39:10;;;;;;;;;13.50;12.00;;;;;;;;119410;1194;25266;-67
2023/06/14 05:41:38;;;;;;;;;16.00;12.00;;;;;;;;119414;1194;25085;-68
2023/06/14 05:44:07;;;;;;;;;9.75;8.75;;;;;;;;119461;1193;25447;-69
2023/06/14 05:46:36;;;;;;;;;10.50;9.00;;;;;;;;119465;1193;25119;-69
2023/06/14 05:49:05;;;;;;;;;7.33;7.33;;;;;;;;119404;1194;25096;-70
2023/06/14 05:51:33;;;;;;;;;11.75;9.00;;;;;;;;119414;1186;26251;-71
2023/06/14 05:54:02;;;;;;;;;7.67;5.00;;;;;;;;119419;1194;25945;-70
2023/06/14 05:56:30;;;;;;;;;8.25;7.00;;;;;;;;119429;1186;25542;-68
2023/06/14 05:58:59;;;;;;;;;8.00;8.00;;;;;;;;119372;1187;25136;-69
2023/06/14 06:01:28;;;;;;;;;8.50;8.00;;;;;;;;119401;1194;25026;-68
2023/06/14 06:03:57;;;;;;;;;12.00;9.00;;;;;;;;119415;1185;25300;-68
2023/06/14 06:06:26;;;;;;;;;8.00;8.00;;;;;;;;119426;1194;24960;-73
2023/06/14 06:08:54;;;;;;;;;8.50;8.50;;;;;;;;119421;1185;24852;-62
2023/06/14 06:11:23;;;;;;;;;8.00;8.00;;;;;;;;119396;1190;24845;-59
2023/06/14 06:13:51;;;;;;;;;9.00;9.00;;;;;;;;119440;1186;24938;-59
2023/06/14 06:16:19;;;;;;;;;11.00;9.67;;;;;;;;119401;1187;25218;-59
2023/06/14 06:18:48;;;;;;;;;8.00;8.00;;;;;;;;119420;1194;26305;-57
2023/06/14 06:21:16;;;;;;;;;13.75;8.25;;;;;;;;119399;1186;25100;-57
2023/06/14 06:23:44;;;;;;;;;14.00;9.00;;;;;;;;119417;1186;25065;-58
2023/06/14 06:26:13;;;;;;;;;11.00;7.50;;;;;;;;119408;1194;25474;-57
2023/06/14 06:28:41;;;;;;;;;16.33;11.00;;;;;;;;119404;1194;24784;-57
2023/06/14 06:31:11;;;;;;;;;8.00;7.00;;;;;;;;119424;1186;25533;-58
2023/06/14 06:33:39;;;;;;;;;14.00;10.67;;;;;;;;119397;1194;24938;-58
2023/06/14 06:36:07;;;;;;;;;9.50;9.50;;;;;;;;119426;1194;25385;-57
2023/06/14 06:38:38;;;;;;;;;8.33;8.33;;;;;;;;119393;1194;25019;-58
2023/06/14 06:41:06;;;;;;;;;10.33;10.00;;;;;;;;119421;1185;25133;-57
2023/06/14 06:43:35;;;;;;;;;10.50;9.50;;;;;;;;119396;1193;25037;-62
2023/06/14 06:46:03;;;;;;;;;11.00;10.50;;;;;;;;119426;1194;25174;-57
2023/06/14 06:48:31;;;;;;;;;14.00;9.33;;;;;;;;119414;1190;24853;-57
2023/06/14 06:51:00;;;;;;;;;10.00;10.00;;;;;;;;119389;1194;25252;-57
2023/06/14 06:53:28;;;;;;;;;16.00;13.50;;;;;;;;119477;1189;25086;-56
2023/06/14 06:56:08;;;;;;;;;14.00;11.00;;;;;;;;119487;1186;24929;-57
2023/06/14 06:58:37;;;;;;;;;11.67;10.33;;;;;;;;119412;1186;25354;-57
2023/06/14 07:01:05;;;;;;;;;12.33;11.33;;;;;;;;119394;1194;25072;-57
2023/06/14 07:03:33;;;;;;;;;12.00;10.50;;;;;;;;119401;1193;25665;-58
2023/06/14 07:06:01;;;;;;;;;12.67;10.00;;;;;;;;119426;1186;25034;-57
2023/06/14 07:08:30;;;;;;;;;10.00;8.33;;;;;;;;119412;1190;25444;-57
2023/06/14 07:10:58;;;;;;;;;10.67;9.33;;;;;;;;119400;1194;25381;-58
2023/06/14 07:13:26;;;;;;;;;13.67;11.33;;;;;;;;119402;1193;26321;-57
2023/06/14 07:15:58;;;;;;;;;14.00;11.33;;;;;;;;119406;1190;24841;-56
2023/06/14 07:18:27;;;;;;;;;13.00;9.00;;;;;;;;119398;1190;25043;-57
2023/06/14 07:20:56;;;;;;;;;9.00;8.00;;;;;;;;119311;1190;25211;-57
2023/06/14 07:23:25;;;;;;;;;14.50;14.00;;;;;;;;119426;1190;25302;-58
2023/06/14 07:25:53;;;;;;;;;15.50;12.00;;;;;;;;119429;1194;25085;-57
2023/06/14 07:28:22;;;;;;;;;8.50;8.25;;;;;;;;119438;1194;25611;-57
2023/06/14 07:30:50;;;;;;;;;11.00;11.00;;;;;;;;119434;1194;25489;-58
2023/06/14 07:33:18;;;;;;;;;9.00;8.00;;;;;;;;119404;1186;24824;-58
2023/06/14 07:35:47;;;;;;;;;15.00;10.00;;;;;;;;119382;1194;25140;-58
2023/06/14 07:38:16;;;;;;;;;15.00;13.00;;;;;;;;119403;1190;25659;-58
2023/06/14 07:40:44;;;;;;;;;14.50;12.50;;;;;;;;119408;1190;24785;-58
2023/06/14 07:43:12;;;;;;;;;13.33;9.33;;;;;;;;119590;1180;25324;-58
2023/06/14 07:45:41;;;;;;;;;11.00;11.00;;;;;;;;119439;1186;26220;-58
2023/06/14 07:48:24;;;;;;;;;12.50;12.50;;;;;;;;119407;1185;24832;-58
2023/06/14 07:50:56;;;;;;;;;12.00;10.00;;;;;;;;119436;1194;25466;-58
2023/06/14 07:53:25;;;;;;;;;14.50;12.00;;;;;;;;119480;1189;25358;-58
2023/06/14 07:55:54;;;;;;;;;14.00;10.50;;;;;;;;119404;1194;24762;-58
2023/06/14 07:58:22;;;;;;;;;14.50;12.00;;;;;;;;119402;1194;25432;-58
2023/06/14 08:00:51;;;;;;;;;11.00;9.50;;;;;;;;119481;1190;25495;-59
2023/06/14 08:03:19;;;;;;;;;12.00;10.50;;;;;;;;119393;1194;25620;-58
2023/06/14 08:05:48;;;;;;;;;7.33;7.00;;;;;;;;119437;1194;26058;-58
2023/06/14 08:08:16;;;;;;;;;12.00;11.00;;;;;;;;119414;1194;25381;-58
2023/06/14 08:10:45;;;;;;;;;10.67;10.67;;;;;;;;119476;1186;25798;-58
2023/06/14 08:13:13;;;;;;;;;17.33;13.33;;;;;;;;119379;1194;25792;-57
2023/06/14 08:15:41;;;;;;;;;12.33;10.67;;;;;;;;119419;1194;25309;-57
2023/06/14 08:18:10;;;;;;;;;13.67;11.00;;;;;;;;119438;1189;25555;-58
2023/06/14 08:20:40;;;;;;;;;13.00;11.00;;;;;;;;119412;1194;25558;-59
2023/06/14 08:23:08;;;;;;;;;8.50;8.50;;;;;;;;119392;1194;25653;-55
2023/06/14 08:25:37;;;;;;;;;10.00;9.00;;;;;;;;119419;1193;24963;-56
2023/06/14 08:28:06;;;;;;;;;12.00;10.00;;;;;;;;119415;1194;25290;-57
2023/06/14 08:30:34;;;;;;;;;16.67;13.67;;;;;;;;119412;1194;25224;-57
2023/06/14 08:33:02;;;;;;;;;13.33;9.33;;;;;;;;119399;1194;25358;-57
2023/06/14 08:35:44;;;;;;;;;16.00;11.50;;;;;;;;119418;1186;24743;-60
2023/06/14 08:38:13;;;;;;;;;11.00;9.00;;;;;;;;119419;1185;25398;-59
2023/06/14 08:40:42;;;;;;;;;10.50;9.00;;;;;;;;119443;1194;25280;-59
2023/06/14 08:43:10;;;;;;;;;10.67;9.67;;;;;;;;119419;1192;25504;-59
2023/06/14 08:45:39;;;;;;;;;13.50;9.00;;;;;;;;119580;1186;25201;-60
2023/06/14 08:48:07;;;;;;;;;12.50;9.75;;;;;;;;119550;1193;25487;-59
2023/06/14 08:50:36;;;;;;;;;9.00;9.00;;;;;;;;119539;1193;24880;-59
2023/06/14 08:53:10;;;;;;;;;10.67;8.33;;;;;;;;119405;1189;24850;-60
2023/06/14 08:55:39;;;;;;;;;10.50;10.00;;;;;;;;119530;1189;24856;-60
2023/06/14 08:58:14;;;;;;;;;15.50;12.00;;;;;;;;119570;1179;25370;-60
2023/06/14 09:00:44;;;;;;;;;14.00;10.33;;;;;;;;119440;1184;25326;-59
2023/06/14 09:03:13;;;;;;;;;9.00;9.00;;;;;;;;119416;1193;25403;-59
2023/06/14 09:05:43;;;;;;;;;13.75;8.50;;;;;;;;119415;1194;25633;-59
2023/06/14 09:08:12;;;;;;;;;18.00;17.75;;;;;;;;119414;1185;24833;-58
2023/06/14 09:10:40;;;;;;;;;31.67;27.00;;;;;;;;119407;1193;24935;-57
2023/06/14 09:13:09;;;;;;;;;104.00;80.00;;;;;;;;119400;1186;24940;-57
2023/06/14 09:15:37;;;;;;;;;123.33;100.00;;;;;;;;119481;1190;24886;-58
2023/06/14 09:18:06;;;;;;;;;112.00;90.00;;;;;;;;119429;1194;25304;-57
2023/06/14 09:20:35;;;;;;;;;115.75;92.75;;;;;;;;119396;1194;25687;-57
2023/06/14 09:23:05;;;;;;;;;130.00;101.00;;;;;;;;119399;1194;25752;-57
2023/06/14 09:25:45;;;;;;;;;118.00;101.00;;;;;;;;119477;1185;25823;-57
2023/06/14 09:28:14;;;;;;;;;108.33;89.33;;;;;;;;119418;1194;25994;-57
2023/06/14 09:30:42;;;;;;;;;102.00;89.00;;;;;;;;119423;1190;25591;-57
2023/06/14 09:33:16;;;;;;;;;89.00;72.00;;;;;;;;119399;1186;24932;-58
2023/06/14 09:35:46;;;;;;;;;94.33;76.00;;;;;;;;119433;1194;24999;-58
2023/06/14 09:38:14;;;;;;;;;93.50;81.50;;;;;;;;119372;1194;24739;-58
2023/06/14 09:40:43;;;;;;;;;95.50;81.00;;;;;;;;119424;1194;25298;-58
2023/06/14 09:43:12;;;;;;;;;114.33;84.67;;;;;;;;119387;1194;26062;-57
2023/06/14 09:45:40;;;;;;;;;78.00;61.00;;;;;;;;119442;1185;26240;-57
2023/06/14 09:48:09;;;;;;;;;81.50;67.50;;;;;;;;119404;1190;24882;-58
2023/06/14 09:50:39;;;;;;;;;82.00;64.00;;;;;;;;119418;1185;25695;-57
2023/06/14 09:53:10;;;;;;;;;80.50;58.50;;;;;;;;119416;1194;24788;-58
2023/06/14 09:55:41;;;;;;;;;70.67;53.00;;;;;;;;119399;1194;25766;-57
2023/06/14 09:58:11;;;;;;;;;66.00;53.00;;;;;;;;119410;1194;24984;-57
2023/06/14 10:00:41;;;;;;;;;64.00;50.00;;;;;;;;119409;1185;25165;-63
2023/06/14 10:03:14;;;;;;;;;63.50;48.00;;;;;;;;119414;1194;25601;-58
2023/06/14 10:05:46;;;;;;;;;62.00;49.00;;;;;;;;119405;1194;25561;-58
2023/06/14 10:08:16;;;;;;;;;61.33;47.67;;;;;;;;119400;1194;24957;-58
2023/06/14 10:10:45;;;;;;;;;73.67;51.00;;;;;;;;119409;1194;25315;-58
2023/06/14 10:13:14;;;;;;;;;78.00;58.00;;;;;;;;119424;1194;24978;-59
2023/06/14 10:16:23;;;;;;;;;47.00;35.50;;;;;;;;119413;1194;25225;-59
2023/06/14 10:19:03;;;;;;;;;60.50;45.00;;;;;;;;119438;1194;24818;-59
2023/06/14 10:21:53;;;;;;;;;50.33;41.67;;;;;;;;119425;1194;24777;-57
2023/06/14 10:24:32;;;;;;;;;53.50;42.75;;;;;;;;119416;1190;25364;-57
2023/06/14 10:27:01;;;;;;;;;46.50;37.00;;;;;;;;119440;1185;25405;-57
2023/06/14 10:29:32;;;;;;;;;46.00;35.50;;;;;;;;119409;1190;24911;-57
2023/06/14 10:32:01;;;;;;;;;54.00;42.00;;;;;;;;119556;1190;25672;-57
2023/06/14 10:34:30;;;;;;;;;56.00;45.00;;;;;;;;119411;1194;25586;-57
2023/06/14 10:37:04;;;;;;;;;52.50;42.00;;;;;;;;119393;1187;26501;-60
2023/06/14 10:39:41;;;;;;;;;47.00;39.00;;;;;;;;119429;1194;25301;-57
2023/06/14 10:42:09;;;;;;;;;58.67;43.33;;;;;;;;119413;1194;25499;-57
2023/06/14 10:45:01;;;;;;;;;45.00;38.00;;;;;;;;119410;1194;25673;-58
2023/06/14 10:47:40;;;;;;;;;51.00;41.00;;;;;;;;119397;1194;24910;-64
2023/06/14 10:50:10;;;;;;;;;49.00;38.00;;;;;;;;119397;1194;25783;-58
2023/06/14 10:52:41;;;;;;;;;52.50;39.50;;;;;;;;119422;1186;24895;-65
2023/06/14 10:55:14;;;;;;;;;51.00;38.50;;;;;;;;119405;1186;24783;-65
2023/06/14 10:57:51;;;;;;;;;40.00;35.50;;;;;;;;119428;1194;24825;-58
2023/06/14 11:00:23;;;;;;;;;49.00;38.00;;;;;;;;119473;1185;24845;-57
2023/06/14 11:03:07;;;;;;;;;39.50;38.00;;;;;;;;119384;1186;24965;-57
2023/06/14 11:05:43;;;;;;;;;40.00;36.00;;;;;;;;119446;1185;25441;-57
2023/06/14 11:08:47;;;;;;;;;43.00;35.00;;;;;;;;119433;1185;25247;-58
2023/06/14 11:11:15;;;;;;;;;49.33;38.33;;;;;;;;119409;1194;24878;-57
2023/06/14 11:13:45;;;;;;;;;45.00;37.00;;;;;;;;119418;1194;25528;-58
2023/06/14 11:16:18;;;;;;;;;40.00;33.00;;;;;;;;119413;1185;25676;-57
2023/06/14 11:18:49;;;;;;;;;37.00;33.33;;;;;;;;119385;1195;25656;-57
2023/06/14 11:21:21;;;;;;;;;41.67;35.67;;;;;;;;119388;1187;25372;-59
2023/06/14 11:23:54;;;;;;;;;35.00;32.00;;;;;;;;119448;1185;25437;-62
2023/06/14 11:26:31;;;;;;;;;42.50;31.00;;;;;;;;119405;1194;25269;-57
2023/06/14 11:29:00;;;;;;;;;37.00;35.00;;;;;;;;119415;1182;25692;-56
2023/06/14 11:31:28;;;;;;;;;37.00;32.00;;;;;;;;119416;1194;25281;-54
2023/06/14 11:33:59;;;;;;;;;34.67;29.33;;;;;;;;119396;1190;25402;-56
2023/06/14 11:36:31;;;;;;;;;35.00;27.00;;;;;;;;119434;1185;24746;-57
2023/06/14 11:39:03;;;;;;;;;30.67;27.00;;;;;;;;119402;1194;25464;-63
2023/06/14 11:41:43;;;;;;;;;42.00;34.00;;;;;;;;119384;1194;25607;-55
2023/06/14 11:44:11;;;;;;;;;41.00;36.50;;;;;;;;119402;1194;24857;-58
2023/06/14 11:46:40;;;;;;;;;46.00;33.00;;;;;;;;119409;1185;25653;-58
2023/06/14 11:49:09;;;;;;;;;46.67;37.67;;;;;;;;119415;1194;25660;-59
2023/06/14 11:51:38;;;;;;;;;42.00;35.00;;;;;;;;119405;1194;25407;-56
2023/06/14 11:54:07;;;;;;;;;53.75;38.25;;;;;;;;119413;1194;24998;-57
2023/06/14 11:56:36;;;;;;;;;46.50;33.00;;;;;;;;119445;1194;25275;-58
2023/06/14 11:59:05;;;;;;;;;48.00;34.00;;;;;;;;119393;1192;25645;-59
2023/06/14 12:01:38;;;;;;;;;29.00;26.33;;;;;;;;119408;1194;25161;-58
2023/06/14 12:04:07;;;;;;;;;29.00;27.50;;;;;;;;119477;1189;25289;-57
2023/06/14 12:06:39;;;;;;;;;35.00;26.00;;;;;;;;119385;1186;24871;-57
2023/06/14 12:09:12;;;;;;;;;34.00;29.00;;;;;;;;119446;1180;25475;-57
2023/06/14 12:11:42;;;;;;;;;35.50;29.50;;;;;;;;119424;1190;24728;-64
2023/06/14 12:14:10;;;;;;;;;31.00;25.00;;;;;;;;119465;1185;25515;-57
2023/06/14 12:16:41;;;;;;;;;26.67;20.00;;;;;;;;119413;1194;25302;-57
2023/06/14 12:19:17;;;;;;;;;20.00;18.00;;;;;;;;119426;1190;25662;-57
2023/06/14 12:21:48;;;;;;;;;26.50;24.00;;;;;;;;119406;1184;24830;-56
2023/06/14 12:24:17;;;;;;;;;23.00;20.00;;;;;;;;119415;1185;25663;-58
2023/06/14 12:26:46;;;;;;;;;27.75;21.25;;;;;;;;119415;1194;25352;-57
2023/06/14 12:29:15;;;;;;;;;25.33;18.33;;;;;;;;119415;1194;25535;-56
2023/06/14 12:31:43;;;;;;;;;25.00;17.50;;;;;;;;119404;1186;24989;-57
2023/06/14 12:34:11;;;;;;;;;19.25;17.00;;;;;;;;119455;1190;25179;-57
2023/06/14 12:36:44;;;;;;;;;18.33;16.00;;;;;;;;119504;1193;25082;-56
2023/06/14 12:39:13;;;;;;;;;19.33;17.00;;;;;;;;119522;1193;25401;-56
2023/06/14 12:41:42;;;;;;;;;15.50;14.00;;;;;;;;119552;1190;25255;-56
2023/06/14 12:44:13;;;;;;;;;20.00;14.00;;;;;;;;119473;1185;25576;-56
2023/06/14 12:46:43;;;;;;;;;17.50;15.75;;;;;;;;119608;1189;24951;-56
2023/06/14 12:49:12;;;;;;;;;23.00;18.00;;;;;;;;119419;1193;25395;-56
2023/06/14 12:51:40;;;;;;;;;18.00;16.00;;;;;;;;119432;1186;26427;-56
2023/06/14 12:54:09;;;;;;;;;17.67;15.67;;;;;;;;119433;1193;25374;-56
2023/06/14 12:56:38;;;;;;;;;20.00;14.33;;;;;;;;119375;1193;24819;-56
2023/06/14 12:59:07;;;;;;;;;15.50;15.00;;;;;;;;119441;1193;25322;-56
2023/06/14 13:01:39;;;;;;;;;18.00;18.00;;;;;;;;119646;1180;25488;-56
2023/06/14 13:04:07;;;;;;;;;11.00;10.00;;;;;;;;119608;1189;25212;-56
2023/06/14 13:06:36;;;;;;;;;18.50;15.50;;;;;;;;119391;1193;25590;-56
2023/06/14 13:09:05;;;;;;;;;12.33;12.33;;;;;;;;119446;1185;24934;-56
2023/06/14 13:11:33;;;;;;;;;18.67;16.67;;;;;;;;119396;1194;25027;-57
2023/06/14 13:14:02;;;;;;;;;16.75;16.75;;;;;;;;119391;1194;25529;-57
2023/06/14 13:16:50;;;;;;;;;15.00;15.00;;;;;;;;119425;1185;25130;-56
2023/06/14 13:19:18;;;;;;;;;17.33;14.00;;;;;;;;119601;1189;25276;-56
2023/06/14 13:21:48;;;;;;;;;18.25;12.50;;;;;;;;119420;1194;25176;-56
2023/06/14 13:24:16;;;;;;;;;16.50;15.00;;;;;;;;119508;1189;24836;-56
2023/06/14 13:26:44;;;;;;;;;14.00;12.33;;;;;;;;119435;1194;25624;-56
2023/06/14 13:29:13;;;;;;;;;12.50;11.50;;;;;;;;119396;1194;25455;-56
2023/06/14 13:31:41;;;;;;;;;15.67;13.00;;;;;;;;119391;1190;25559;-56
2023/06/14 13:34:09;;;;;;;;;12.00;12.00;;;;;;;;119406;1194;25547;-56
2023/06/14 13:36:38;;;;;;;;;13.50;11.50;;;;;;;;119394;1194;24974;-56
2023/06/14 13:39:06;;;;;;;;;20.00;15.67;;;;;;;;119406;1185;25369;-56
2023/06/14 13:41:35;;;;;;;;;13.00;11.00;;;;;;;;119410;1194;24956;-56
2023/06/14 13:44:04;;;;;;;;;17.25;12.25;;;;;;;;119394;1194;25090;-57
2023/06/14 13:46:32;;;;;;;;;16.00;9.67;;;;;;;;119404;1191;25503;-57
2023/06/14 13:49:01;;;;;;;;;15.00;12.00;;;;;;;;119423;1194;25329;-57
2023/06/14 13:51:30;;;;;;;;;17.00;14.00;;;;;;;;119389;1193;24787;-57
2023/06/14 13:53:58;;;;;;;;;13.00;10.33;;;;;;;;119432;1186;25796;-57
2023/06/14 13:56:27;;;;;;;;;19.67;16.67;;;;;;;;119405;1194;25482;-56
2023/06/14 13:58:55;;;;;;;;;14.00;10.00;;;;;;;;119456;1189;25545;-56
2023/06/14 14:01:25;;;;;;;;;15.00;12.00;;;;;;;;119405;1194;24919;-56
2023/06/14 14:03:54;;;;;;;;;15.00;12.00;;;;;;;;119395;1190;25556;-56
2023/06/14 14:06:22;;;;;;;;;8.00;8.00;;;;;;;;119409;1194;25497;-56
2023/06/14 14:08:50;;;;;;;;;11.67;10.67;;;;;;;;119430;1185;24833;-56
2023/06/14 14:11:20;;;;;;;;;12.50;12.50;;;;;;;;119427;1189;25002;-58
2023/06/14 14:13:48;;;;;;;;;10.00;10.00;;;;;;;;119424;1185;24974;-56
2023/06/14 14:16:17;;;;;;;;;15.00;12.67;;;;;;;;119413;1194;26529;-56
2023/06/14 14:18:46;;;;;;;;;14.00;12.50;;;;;;;;119382;1194;25268;-57
2023/06/14 14:21:14;;;;;;;;;14.50;13.50;;;;;;;;119488;1180;25737;-56
2023/06/14 14:23:43;;;;;;;;;9.00;9.00;;;;;;;;119412;1194;25346;-56
2023/06/14 14:26:12;;;;;;;;;13.67;12.00;;;;;;;;119412;1194;25338;-56
2023/06/14 14:28:40;;;;;;;;;11.00;10.50;;;;;;;;119469;1189;25690;-56